No particular awareness of the weather is required.    There are no Weather-warnings


Meteo18 Weather Cam more information Meteo18 Weather Cam


Thunder radar more information blitzortung!


Rain radar more information rain snow radar


Visit our other weather sites:

Template documentation
and downloads

And another site



Weather Underground History page Text

Daily Summary for March 26, 2017 Units:  English    Metric   Both
« Previous Day
Next Day »
Daily Weekly Monthly Yearly Custom
  High: Low: Average:
Temperature: 63.1 °F 47.7 °F 54.1 °F
Dew Point: 45.9 °F 40.3 °F 43 °F
Humidity: 86 % 44 % 68 %
Wind Speed: 9 mph 0 mph 1.1 mph
Wind Gust: 12 mph - -
Wind:- - ESE
Pressure: 30.2 in 30.1 in -
Precipitation: 0 in    
Historical Graphs
 
 
Tabular Data for March 26, 2017
Time Temperature Dew Point Pressure Wind Wind Speed Wind Gust Humidity Rainfall Rate (Hourly)
00:02 50.5 °F 45.5 °F 30.1 in Calm   1 mph 83 % 0 in
00:07 50.5 °F 45.3 °F 30.1 in East 3 mph 3 mph 82 % 0 in
00:12 50.9 °F 45.7 °F 30.1 in ESE 1 mph 2 mph 82 % 0 in
00:17 51.1 °F 45.5 °F 30.1 in Calm   3 mph 81 % 0 in
00:22 51.1 °F 45.5 °F 30.1 in Calm   3 mph 81 % 0 in
00:27 51.1 °F 45.5 °F 30.1 in East 1 mph 3 mph 81 % 0 in
00:37 51.3 °F 45 °F 30.1 in ESE 1 mph 3 mph 79 % 0 in
00:42 51.3 °F 44.6 °F 30.1 in East 1 mph 3 mph 78 % 0 in
00:47 51.3 °F 44.6 °F 30.1 in East 1 mph 4 mph 78 % 0 in
00:57 51.1 °F 44.4 °F 30.1 in Calm   4 mph 78 % 0 in
01:02 50.9 °F 44.6 °F 30.1 in Calm   3 mph 79 % 0 in
01:12 50.5 °F 44.2 °F 30.1 in Calm   2 mph 79 % 0 in
01:17 50.5 °F 44.2 °F 30.1 in East 1 mph 1 mph 79 % 0 in
01:22 50.5 °F 44.2 °F 30.1 in Calm   4 mph 79 % 0 in
01:32 50.4 °F 44.1 °F 30.1 in Calm   4 mph 79 % 0 in
01:42 49.8 °F 43.5 °F 30.1 in Calm   4 mph 79 % 0 in
01:52 49.5 °F 43.9 °F 30.1 in Calm   4 mph 81 % 0 in
01:57 49.3 °F 43.7 °F 30.1 in Calm   4 mph 81 % 0 in
03:02 49.3 °F 43.7 °F 30.1 in Calm   3 mph 81 % 0 in
03:12 48.7 °F 43.5 °F 30.1 in Calm   2 mph 82 % 0 in
03:17 48.6 °F 43.3 °F 30.1 in Calm   2 mph 82 % 0 in
03:22 48.6 °F 43.3 °F 30.1 in Calm   1 mph 82 % 0 in
03:32 48.4 °F 43.5 °F 30.1 in Calm   2 mph 83 % 0 in
03:37 48.4 °F 43.5 °F 30.1 in Calm   2 mph 83 % 0 in
03:42 48.4 °F 43.2 °F 30.1 in Calm   2 mph 82 % 0 in
03:47 48.4 °F 43.2 °F 30.1 in Calm   1 mph 82 % 0 in
03:52 48.6 °F 43.3 °F 30.1 in Calm   1 mph 82 % 0 in
03:57 48.4 °F 43.2 °F 30.1 in Calm   1 mph 82 % 0 in
04:02 48.4 °F 43.2 °F 30.1 in Calm   1 mph 82 % 0 in
04:12 48.2 °F 43 °F 30.1 in Calm     82 % 0 in
04:17 48.4 °F 43.2 °F 30.1 in Calm     82 % 0 in
04:22 48.4 °F 43.2 °F 30.1 in Calm     82 % 0 in
04:27 48.2 °F 43 °F 30.1 in Calm     82 % 0 in
04:32 48.2 °F 43 °F 30.1 in Calm     82 % 0 in
04:42 48.2 °F 43.3 °F 30.1 in Calm     83 % 0 in
04:52 48.4 °F 43.2 °F 30.1 in Calm   1 mph 82 % 0 in
04:57 48.4 °F 43.2 °F 30.1 in Calm   1 mph 82 % 0 in
05:02 48.4 °F 43.2 °F 30.1 in Calm   1 mph 82 % 0 in
05:12 48.4 °F 43.5 °F 30.1 in Calm   1 mph 83 % 0 in
05:22 48 °F 43.2 °F 30.1 in Calm     83 % 0 in
05:27 47.8 °F 43 °F 30.1 in Calm     83 % 0 in
05:32 48 °F 43.2 °F 30.1 in Calm     83 % 0 in
05:42 48 °F 43.2 °F 30.1 in Calm     83 % 0 in
05:47 48 °F 43.2 °F 30.1 in East 1 mph   83 % 0 in
05:52 48 °F 43.2 °F 30.1 in Calm   1 mph 83 % 0 in
06:02 48 °F 43.2 °F 30.1 in Calm   1 mph 83 % 0 in
06:12 48 °F 42.8 °F 30.1 in Calm   1 mph 82 % 0 in
06:17 48 °F 42.8 °F 30.1 in Calm   1 mph 82 % 0 in
06:22 48 °F 42.8 °F 30.1 in Calm     82 % 0 in
06:32 48 °F 42.8 °F 30.1 in Calm     82 % 0 in
06:37 48 °F 42.8 °F 30.1 in Calm     82 % 0 in
06:42 47.8 °F 42.6 °F 30.1 in Calm     82 % 0 in
06:47 48 °F 42.8 °F 30.1 in Calm     82 % 0 in
06:52 48 °F 42.8 °F 30.1 in Calm     82 % 0 in
07:02 47.8 °F 42.6 °F 30.1 in Calm     82 % 0 in
07:12 47.8 °F 43 °F 30.1 in Calm     83 % 0 in
07:17 47.7 °F 42.8 °F 30.1 in Calm     83 % 0 in
07:22 47.7 °F 42.8 °F 30.1 in Calm     83 % 0 in
07:32 47.7 °F 42.4 °F 30.1 in Calm     82 % 0 in
07:37 47.7 °F 42.4 °F 30.1 in Calm     82 % 0 in
07:42 47.8 °F 42.6 °F 30.1 in Calm     82 % 0 in
07:47 47.8 °F 42.3 °F 30.1 in Calm     81 % 0 in
07:52 47.8 °F 42.6 °F 30.1 in Calm     82 % 0 in
08:02 47.7 °F 42.8 °F 30.1 in Calm     83 % 0 in
08:12 47.8 °F 42.6 °F 30.1 in Calm     82 % 0 in
08:17 47.7 °F 43 °F 30.1 in Calm     84 % 0 in
08:22 47.7 °F 43 °F 30.1 in Calm     84 % 0 in
08:32 47.8 °F 43 °F 30.1 in Calm     83 % 0 in
08:37 48 °F 43.3 °F 30.1 in Calm     84 % 0 in
08:42 48 °F 44.1 °F 30.1 in Calm     86 % 0 in
08:52 48 °F 43.7 °F 30.1 in Calm     85 % 0 in
09:02 48.6 °F 43.7 °F 30.1 in Calm     83 % 0 in
09:07 48.7 °F 43.9 °F 30.1 in Calm     83 % 0 in
09:12 48.7 °F 43.9 °F 30.1 in Calm     83 % 0 in
09:17 48.9 °F 43.7 °F 30.1 in Calm     82 % 0 in
09:22 49.3 °F 43.7 °F 30.1 in Calm     81 % 0 in
09:32 49.5 °F 43.5 °F 30.1 in Calm     80 % 0 in
09:42 49.8 °F 43.5 °F 30.1 in Calm   2 mph 79 % 0 in
09:47 50 °F 44.1 °F 30.1 in Calm   2 mph 80 % 0 in
09:52 50 °F 43.7 °F 30.1 in Calm   2 mph 79 % 0 in
09:57 50.2 °F 43.9 °F 30.1 in Calm   1 mph 79 % 0 in
10:02 50.4 °F 44.1 °F 30.1 in Calm   1 mph 79 % 0 in
10:07 50.4 °F 43.3 °F 30.1 in Calm   1 mph 77 % 0 in
10:12 50.5 °F 43.5 °F 30.1 in Calm   1 mph 77 % 0 in
10:22 50.5 °F 43 °F 30.1 in SSE 3 mph 3 mph 75 % 0 in
10:27 50.5 °F 42.6 °F 30.1 in South 3 mph 4 mph 74 % 0 in
10:32 50.5 °F 43.3 °F 30.1 in South 2 mph 4 mph 76 % 0 in
10:37 50.5 °F 43 °F 30.1 in SSE 2 mph 5 mph 75 % 0 in
10:42 50.7 °F 43.7 °F 30.1 in South 1 mph 5 mph 77 % 0 in
10:47 50.9 °F 43.5 °F 30.1 in South 3 mph 5 mph 76 % 0 in
10:52 50.9 °F 43.3 °F 30.1 in South 2 mph 5 mph 75 % 0 in
10:57 50.7 °F 42.8 °F 30.1 in South 3 mph 5 mph 74 % 0 in
11:02 50.9 °F 43.3 °F 30.1 in SSE 2 mph 5 mph 75 % 0 in
11:12 51.3 °F 43.5 °F 30.1 in SSE 1 mph 5 mph 75 % 0 in
11:17 51.4 °F 44.1 °F 30.1 in South 1 mph 5 mph 76 % 0 in
11:22 51.6 °F 43.5 °F 30.2 in ESE 1 mph 5 mph 74 % 0 in
11:32 52.3 °F 43.5 °F 30.2 in SE 4 mph 5 mph 72 % 0 in
11:37 52.5 °F 44.4 °F 30.2 in SE 1 mph 5 mph 74 % 0 in
11:42 52.9 °F 44.1 °F 30.2 in SE 2 mph 5 mph 72 % 0 in
11:47 53.1 °F 44.2 °F 30.2 in SSE 2 mph 5 mph 72 % 0 in
11:52 53.4 °F 44.2 °F 30.2 in SSE 2 mph 5 mph 71 % 0 in
12:02 54.3 °F 44.8 °F 30.2 in SSW 1 mph 4 mph 70 % 0 in
12:12 55.2 °F 44.4 °F 30.2 in SSE 1 mph 4 mph 67 % 0 in
12:17 55.8 °F 45.3 °F 30.2 in SSW 2 mph 4 mph 68 % 0 in
12:22 55.9 °F 44.4 °F 30.2 in Calm   4 mph 65 % 0 in
12:27 56.1 °F 44.6 °F 30.2 in SE 1 mph 4 mph 65 % 0 in
12:32 56.8 °F 44.4 °F 30.2 in Calm   4 mph 63 % 0 in
12:37 57 °F 44.1 °F 30.2 in WSW 3 mph 4 mph 62 % 0 in
12:42 57 °F 45 °F 30.2 in ENE 3 mph 4 mph 64 % 0 in
12:47 56.8 °F 44.8 °F 30.2 in Calm   4 mph 64 % 0 in
12:52 57.2 °F 44.2 °F 30.2 in Calm   4 mph 62 % 0 in
12:57 57.9 °F 45.9 °F 30.2 in NNE 1 mph 5 mph 64 % 0 in
13:02 57.9 °F 44.6 °F 30.2 in Calm   5 mph 61 % 0 in
13:12 58.8 °F 42.3 °F 30.2 in ESE 2 mph 3 mph 54 % 0 in
13:17 59 °F 41.4 °F 30.1 in Calm   3 mph 52 % 0 in
13:22 59.5 °F 43.3 °F 30.1 in NE 1 mph 3 mph 55 % 0 in
13:32 58.8 °F 42.3 °F 30.1 in ENE 4 mph 8 mph 54 % 0 in
13:37 58.8 °F 43.2 °F 30.1 in NNE 4 mph 10 mph 56 % 0 in
13:42 58.6 °F 42.1 °F 30.1 in NE 3 mph 10 mph 54 % 0 in
13:47 58.8 °F 42.6 °F 30.1 in East 2 mph 12 mph 55 % 0 in
13:52 59.4 °F 43.7 °F 30.1 in ENE 4 mph 12 mph 56 % 0 in
13:57 59.4 °F 43.7 °F 30.1 in ENE 7 mph 12 mph 56 % 0 in
14:02 59.2 °F 42.1 °F 30.1 in ENE 9 mph 12 mph 53 % 0 in
14:12 59.4 °F 41.2 °F 30.1 in ENE 3 mph 12 mph 51 % 0 in
14:17 59.5 °F 41.9 °F 30.1 in NE 3 mph 10 mph 52 % 0 in
14:22 59.5 °F 41.9 °F 30.1 in ESE 3 mph 10 mph 52 % 0 in
14:32 60.1 °F 41.4 °F 30.1 in East 7 mph 7 mph 50 % 0 in
14:37 60.1 °F 41.9 °F 30.1 in ESE 2 mph 9 mph 51 % 0 in
14:42 60.6 °F 40.3 °F 30.1 in SSW 2 mph 9 mph 47 % 0 in
14:47 60.6 °F 40.3 °F 30.1 in ESE 1 mph 9 mph 47 % 0 in
14:52 60.6 °F 40.3 °F 30.1 in Calm   8 mph 47 % 0 in
14:57 61.2 °F 42.4 °F 30.1 in SE 1 mph 7 mph 50 % 0 in
15:02 61.3 °F 41 °F 30.1 in Calm   7 mph 47 % 0 in
15:12 61.9 °F 42.4 °F 30.1 in SSW 3 mph 6 mph 49 % 0 in
15:17 61.9 °F 41.9 °F 30.1 in Calm   7 mph 48 % 0 in
15:22 62.4 °F 41.9 °F 30.1 in SSW 3 mph 7 mph 47 % 0 in
15:27 62.4 °F 41.9 °F 30.1 in Calm   7 mph 47 % 0 in
15:32 63.1 °F 42.6 °F 30.1 in East 1 mph 7 mph 47 % 0 in
15:37 62.4 °F 40.8 °F 30.1 in ESE 2 mph 5 mph 45 % 0 in
15:42 62.4 °F 41.9 °F 30.1 in ESE 3 mph 5 mph 47 % 0 in
15:52 61.5 °F 41.2 °F 30.1 in Calm   10 mph 47 % 0 in
15:57 62.1 °F 40.5 °F 30.1 in ENE 2 mph 10 mph 45 % 0 in
16:02 62.4 °F 41.4 °F 30.1 in East 1 mph 10 mph 46 % 0 in
16:12 62.8 °F 41.2 °F 30.1 in East 4 mph 6 mph 45 % 0 in
16:17 62.4 °F 40.3 °F 30.1 in SSE 1 mph 6 mph 44 % 0 in
16:22 63 °F 41.9 °F 30.1 in South 1 mph 8 mph 46 % 0 in
16:32 63 °F 41.9 °F 30.1 in East 6 mph 8 mph 46 % 0 in
16:37 62.8 °F 42.8 °F 30.1 in NE 6 mph 7 mph 48 % 0 in
16:42 62.6 °F 41 °F 30.1 in East 1 mph 7 mph 45 % 0 in
16:47 63 °F 41.9 °F 30.1 in NE 1 mph 8 mph 46 % 0 in
16:52 62.6 °F 42.1 °F 30.1 in NNE 5 mph 8 mph 47 % 0 in
17:02 62.2 °F 42.3 °F 30.1 in ENE 1 mph 9 mph 48 % 0 in
17:07 62.4 °F 42.4 °F 30.1 in North 3 mph 9 mph 48 % 0 in
17:12 62.8 °F 42.8 °F 30.1 in NNE 7 mph 9 mph 48 % 0 in
17:17 62.8 °F 42.3 °F 30.1 in NNW 6 mph 8 mph 47 % 0 in
17:22 62.4 °F 41.4 °F 30.1 in ENE 2 mph 9 mph 46 % 0 in
17:32 62.6 °F 42.1 °F 30.1 in ENE 2 mph 9 mph 47 % 0 in
17:42 62.6 °F 42.6 °F 30.1 in West 1 mph 8 mph 48 % 0 in
17:47 62.2 °F 42.3 °F 30.1 in NNE 2 mph 8 mph 48 % 0 in
17:52 61.9 °F 41.9 °F 30.1 in Calm   6 mph 48 % 0 in
17:57 61.9 °F 43 °F 30.1 in Calm   5 mph 50 % 0 in
18:02 62.1 °F 42.6 °F 30.1 in NE 1 mph 5 mph 49 % 0 in
18:12 61.5 °F 42.6 °F 30.1 in East 1 mph 4 mph 50 % 0 in
18:17 61.9 °F 41.9 °F 30.1 in Calm   3 mph 48 % 0 in
18:22 62.2 °F 41.7 °F 30.1 in Calm   3 mph 47 % 0 in
18:32 62.2 °F 41.7 °F 30.1 in East 3 mph 5 mph 47 % 0 in
18:37 62.2 °F 41.7 °F 30.1 in East 3 mph 5 mph 47 % 0 in
18:42 62.1 °F 42.1 °F 30.1 in East 3 mph 5 mph 48 % 0 in
18:52 61.5 °F 42.3 °F 30.1 in ENE 2 mph 6 mph 49 % 0 in
18:57 61.7 °F 43.9 °F 30.1 in ENE 2 mph 5 mph 52 % 0 in
19:02 61.5 °F 43.2 °F 30.1 in ENE 2 mph 5 mph 51 % 0 in
19:07 61.7 °F 43.3 °F 30.1 in ENE 1 mph 5 mph 51 % 0 in
19:12 61.5 °F 43.2 °F 30.1 in ENE 3 mph 5 mph 51 % 0 in
19:17 61.5 °F 43.7 °F 30.1 in ENE 2 mph 5 mph 52 % 0 in
19:22 61.3 °F 43.5 °F 30.1 in NE 3 mph 4 mph 52 % 0 in
19:27 61.2 °F 43.3 °F 30.1 in ENE 2 mph 4 mph 52 % 0 in
19:32 61 °F 43.7 °F 30.1 in ENE 2 mph 7 mph 53 % 0 in
19:37 60.6 °F 44.4 °F 30.1 in Calm   7 mph 55 % 0 in
19:42 60.3 °F 44.4 °F 30.1 in ENE 2 mph 7 mph 56 % 0 in
19:52 59.5 °F 43.9 °F 30.1 in ENE 1 mph 4 mph 56 % 0 in
19:57 59.4 °F 43.7 °F 30.1 in ENE 1 mph 4 mph 56 % 0 in
20:02 59 °F 44.2 °F 30.1 in East 1 mph 4 mph 58 % 0 in
20:12 58.3 °F 44.1 °F 30.1 in ENE 2 mph 3 mph 59 % 0 in
20:17 58.1 °F 43.3 °F 30.1 in ENE 1 mph 2 mph 58 % 0 in
20:22 57.7 °F 43.5 °F 30.1 in NE 2 mph 2 mph 59 % 0 in
20:32 57.6 °F 43 °F 30.1 in NE 2 mph 2 mph 58 % 0 in
20:37 57.6 °F 43 °F 30.1 in NE 1 mph 2 mph 58 % 0 in
20:42 57.4 °F 42.8 °F 30.1 in NE 2 mph 2 mph 58 % 0 in
20:47 56.5 °F 43.2 °F 30.1 in NNE 3 mph 3 mph 61 % 0 in
20:52 56.1 °F 42.8 °F 30.1 in NNE 1 mph 2 mph 61 % 0 in
20:57 56.1 °F 42.8 °F 30.1 in Calm   3 mph 61 % 0 in
21:02 55.6 °F 43.2 °F 30.1 in Calm   3 mph 63 % 0 in
21:12 54.9 °F 43 °F 30.1 in Calm   3 mph 64 % 0 in
21:17 54.3 °F 42.8 °F 30.1 in Calm   1 mph 65 % 0 in
21:22 54.3 °F 42.8 °F 30.1 in Calm     65 % 0 in
21:32 53.8 °F 42.6 °F 30.1 in Calm     66 % 0 in
21:37 53.1 °F 42.8 °F 30.1 in NW 1 mph 1 mph 68 % 0 in
21:42 52.3 °F 42.8 °F 30.1 in Calm   1 mph 70 % 0 in
21:47 52.3 °F 42.8 °F 30.1 in Calm   2 mph 70 % 0 in
21:52 52 °F 42.8 °F 30.1 in Calm   2 mph 71 % 0 in
21:57 52 °F 42.8 °F 30.1 in Calm     71 % 0 in
22:02 51.8 °F 42.6 °F 30.1 in Calm     71 % 0 in
22:12 52.5 °F 42.6 °F 30.1 in Calm     69 % 0 in
22:17 52.9 °F 42.6 °F 30.1 in Calm     68 % 0 in
22:22 52.5 °F 42.3 °F 30.1 in Calm     68 % 0 in
22:32 52 °F 42.4 °F 30.1 in Calm     70 % 0 in
22:37 51.6 °F 42.4 °F 30.1 in NW 1 mph   71 % 0 in
22:42 50.9 °F 42.3 °F 30.1 in WNW 2 mph 2 mph 72 % 0 in
22:52 51.1 °F 42.4 °F 30.1 in WNW 1 mph 2 mph 72 % 0 in
22:57 50.9 °F 42.6 °F 30.1 in NNW 1 mph 2 mph 73 % 0 in
23:02 50.5 °F 42.6 °F 30.1 in North 1 mph 2 mph 74 % 0 in
23:12 50.7 °F 42.8 °F 30.1 in NNW 1 mph 2 mph 74 % 0 in
23:22 50.7 °F 42.8 °F 30.1 in NNE 1 mph 2 mph 74 % 0 in
23:27 50.5 °F 42.6 °F 30.1 in NNE 3 mph 3 mph 74 % 0 in
23:32 50.9 °F 42.6 °F 30.1 in North 3 mph 3 mph 73 % 0 in
23:37 51.4 °F 42.8 °F 30.1 in NNE 4 mph 7 mph 72 % 0 in
23:42 52 °F 42.8 °F 30.1 in NE 2 mph 7 mph 71 % 0 in
23:47 52.2 °F 42.6 °F 30.1 in East 1 mph 7 mph 70 % 0 in
23:52 51.8 °F 42.6 °F 30.1 in ENE 2 mph 7 mph 71 % 0 in
23:57 51.4 °F 42.8 °F 30.2 in Calm   4 mph 72 % 0 in
Meteo18
Compliments of Weather Underground - 4 mb

Script developed by  Jim McMurry - jmcmurry@mwt.net Adapted for the template by  Wim van der Kuil - Leuven-Template.eu

You find our weather info also at:

European Weather Network

Weather Underground

Equipment we use:

Weather-station
Davis Vue

Weather-program
Meteohub

Weather-server
Raspberry PI 2 B+

Provider
1 and 1

Davis Vue

Meteohub

Raspberry PI 2 B+

1 and 1